McNair Village, Texas
Current Conditions -  °F | °C
As of 11:56 AM on Friday 24 Oct 2014 (Local Time) from KHLR Reporting Station
Broken Clouds Broken Clouds  
Wind Chill: 27°   Ceiling: 5000
Heat Index: 27°   Visibility: 10mi
Dew Point: 15°   Wind: 5mph
Humidity: 48%   Direction: 190°S
Pressure: 30.18"   Gusts: NA
Location:  31.2151°N, 97.7405°W
Report Text: KHLR 241656Z AUTO 19004KT 10SM BKN050 27/15 A3018 RMK AO2 SLP244 T02670150 PWINO $
Loading
Personal Weather Stations






























Interactive Weather Map
Tropical Storm Tracking
New forecast layout! Learn more

10-Day Weather Forecast

Advertisements
Track Severe Weather on mobile